Time;durP1;ratioP1;P1;durP2;ratioP2;P2;SDS_P1;SDS_P2;PMS_P1;PMS_P2;Temp;Humidity;BMP_temperature;BMP_pressure;BME280_temperature;BME280_humidity;BME280_pressure;Samples;Min_cycle;Max_cycle;Signal;HPM_P1;HPM_P2
2022/09/07 00:01:29;;;;;;;6.17;2.47;;;;;;;18.04;82.45;98419.44;4952939;28;20236;-53
2022/09/07 00:03:57;;;;;;;6.13;2.50;;;;;;;17.98;82.70;98414.97;4954812;28;20316;-54
2022/09/07 00:06:25;;;;;;;9.87;2.80;;;;;;;17.98;84.53;98407.84;4937745;28;20240;-55
2022/09/07 00:08:53;;;;;;;5.87;2.70;;;;;;;17.95;84.08;98402.19;4940552;28;20254;-53
2022/09/07 00:11:20;;;;;;;6.83;2.93;;;;;;;17.94;83.91;98392.63;4955473;28;20238;-54
2022/09/07 00:13:49;;;;;;;4.97;3.00;;;;;;;17.90;84.65;98391.41;4954615;28;20229;-53
2022/09/07 00:16:17;;;;;;;6.73;2.70;;;;;;;17.94;85.48;98398.72;4955192;28;20971;-52
2022/09/07 00:18:44;;;;;;;3.47;2.33;;;;;;;17.92;84.64;98390.19;4951239;28;20569;-52
2022/09/07 00:21:12;;;;;;;4.63;2.10;;;;;;;17.89;84.05;98382.66;4954859;28;20232;-50
2022/09/07 00:23:40;;;;;;;6.43;2.33;;;;;;;17.88;83.83;98378.41;4951796;28;20235;-53
2022/09/07 00:26:11;;;;;;;7.70;2.53;;;;;;;17.85;84.13;98373.53;4953553;28;20236;-52
2022/09/07 00:28:39;;;;;;;5.97;3.00;;;;;;;17.89;84.02;98369.47;4949209;28;20298;-53
2022/09/07 00:31:11;;;;;;;7.33;2.47;;;;;;;17.87;83.85;98370.69;4939960;28;20258;-55
2022/09/07 00:33:37;;;;;;;7.83;2.90;;;;;;;17.86;83.89;98369.88;4941968;28;20581;-54
2022/09/07 00:36:04;;;;;;;5.77;2.33;;;;;;;17.85;83.42;98369.06;4954214;28;20245;-52
2022/09/07 00:38:35;;;;;;;6.07;2.70;;;;;;;17.83;83.66;98365.00;4934739;28;20634;-55
2022/09/07 00:41:02;;;;;;;8.30;2.37;;;;;;;17.82;83.06;98366.84;4941272;28;20719;-54
2022/09/07 00:43:33;;;;;;;5.53;2.20;;;;;;;17.85;83.25;98362.97;4952132;23;20242;-54
2022/09/07 00:46:01;;;;;;;5.90;2.23;;;;;;;17.79;83.16;98369.06;4914523;28;20242;-52
2022/09/07 00:48:34;;;;;;;5.70;2.17;;;;;;;17.82;82.88;98366.84;4932433;28;20236;-53
2022/09/07 00:51:09;;;;;;;6.00;1.83;;;;;;;17.85;82.97;98366.44;4917238;28;20333;-54
2022/09/07 00:53:39;;;;;;;8.43;2.60;;;;;;;17.90;82.35;98360.53;4895657;29;20224;-55
2022/09/07 00:56:07;;;;;;;6.43;2.10;;;;;;;17.94;82.20;98363.59;4926749;28;20252;-54
2022/09/07 00:58:39;;;;;;;7.10;2.40;;;;;;;17.96;82.11;98364.19;4924432;28;20993;-51
2022/09/07 01:01:08;;;;;;;6.20;2.17;;;;;;;18.04;81.41;98369.25;4919871;28;20244;-53
2022/09/07 01:03:40;;;;;;;6.70;2.23;;;;;;;18.02;82.42;98359.94;4926489;28;20243;-51
2022/09/07 01:06:12;;;;;;;7.50;2.20;;;;;;;18.15;81.70;98366.00;4901341;28;20248;-55
2022/09/07 01:08:40;;;;;;;4.77;2.10;;;;;;;18.20;81.26;98370.66;4919327;29;20348;-53
2022/09/07 01:11:11;;;;;;;10.00;3.03;;;;;;;18.28;80.91;98362.53;4924071;28;20336;-55
2022/09/07 01:13:54;;;;;;;8.03;2.73;;;;;;;18.34;80.49;98376.72;4867721;28;20639;-54
2022/09/07 01:16:36;;;;;;;8.63;2.87;;;;;;;18.41;80.63;98368.78;4925593;29;20238;-52
2022/09/07 01:19:23;;;;;;;3.20;2.00;;;;;;;18.59;79.11;98379.47;4926066;28;20814;-53
2022/09/07 01:22:08;;;;;;;6.20;2.60;;;;;;;18.65;79.78;98401.66;4923240;29;20272;-54
2022/09/07 01:24:46;;;;;;;6.07;3.03;;;;;;;18.77;82.12;98472.38;4912453;28;20231;-55
2022/09/07 01:27:47;;;;;;;9.17;3.90;;;;;;;18.69;84.49;98502.47;4924506;29;20246;-55
2022/09/07 01:30:21;;;;;;;9.70;3.80;;;;;;;18.64;85.46;98479.31;4927626;28;20239;-54
2022/09/07 01:33:15;;;;;;;12.20;3.60;;;;;;;18.57;86.98;98494.38;4867545;28;20244;-54
2022/09/07 01:35:50;;;;;;;6.90;3.33;;;;;;;18.58;86.17;98503.94;4915173;29;20346;-53
2022/09/07 01:38:26;;;;;;;5.30;3.63;;;;;;;18.54;87.10;98508.84;4925463;28;20228;-52
2022/09/07 01:41:04;;;;;;;5.90;3.20;;;;;;;18.46;88.83;98510.88;4871867;28;20340;-56
2022/09/07 01:43:42;;;;;;;6.77;2.77;;;;;;;18.42;89.67;98497.25;4893917;28;20237;-52
2022/09/07 01:46:15;;;;;;;5.40;3.40;;;;;;;18.38;91.37;98490.75;4924753;29;20240;-52
2022/09/07 01:48:44;;;;;;;6.80;2.80;;;;;;;18.42;90.25;98497.25;4923383;28;20458;-54
2022/09/07 01:51:12;;;;;;;4.87;2.73;;;;;;;18.35;91.41;98502.53;4927793;28;20237;-54
2022/09/07 01:53:43;;;;;;;12.97;3.80;;;;;;;18.28;92.40;98507.84;4927041;28;20239;-55
2022/09/07 01:56:13;;;;;;;5.33;2.50;;;;;;;18.33;91.79;98511.69;4929596;28;20634;-51
2022/09/07 01:58:48;;;;;;;7.23;2.70;;;;;;;18.23;93.05;98512.09;4915432;28;20231;-55
2022/09/07 02:01:23;;;;;;;10.07;3.07;;;;;;;18.26;92.70;98501.13;4910161;29;20224;-52
2022/09/07 02:03:55;;;;;;;7.27;3.20;;;;;;;18.19;93.95;98495.03;4894644;28;20325;-54
2022/09/07 02:06:30;;;;;;;8.60;2.83;;;;;;;18.17;93.80;98489.13;4923555;28;20525;-53
2022/09/07 02:09:02;;;;;;;4.20;2.70;;;;;;;18.09;94.52;98495.44;4916439;28;21890;-55
2022/09/07 02:11:35;;;;;;;7.33;2.80;;;;;;;18.10;94.48;98482.00;4892473;28;20279;-53
2022/09/07 02:14:11;;;;;;;7.60;2.70;;;;;;;18.05;93.61;98484.44;4925600;29;20266;-53
2022/09/07 02:16:46;;;;;;;8.67;2.43;;;;;;;18.03;93.19;98475.91;4920354;28;20267;-52
2022/09/07 02:19:17;;;;;;;5.60;2.90;;;;;;;18.04;91.93;98477.53;4923529;28;20236;-55
2022/09/07 02:22:00;;;;;;;6.37;2.80;;;;;;;18.14;90.44;98483.22;4904934;28;20366;-55
2022/09/07 02:24:34;;;;;;;5.13;2.50;;;;;;;18.19;90.91;98485.28;4857005;29;20310;-55
2022/09/07 02:27:11;;;;;;;4.73;2.23;;;;;;;18.27;90.51;98489.53;4903907;28;20232;-54
2022/09/07 02:29:40;;;;;;;8.87;2.83;;;;;;;18.33;90.51;98486.06;4881841;28;20729;-55
2022/09/07 02:32:08;;;;;;;9.53;2.93;;;;;;;18.36;90.34;98483.03;4872871;28;20329;-55
2022/09/07 02:34:37;;;;;;;4.33;2.47;;;;;;;18.37;90.62;98475.94;4902847;28;21392;-54
2022/09/07 02:37:18;;;;;;;6.77;2.73;;;;;;;18.35;90.51;98476.13;4923461;28;20264;-52
2022/09/07 02:39:51;;;;;;;8.63;3.17;;;;;;;18.33;91.62;98467.59;4878475;28;20283;-55
2022/09/07 02:42:23;;;;;;;8.60;2.57;;;;;;;18.35;91.26;98462.09;4861154;28;20240;-56
2022/09/07 02:44:52;;;;;;;5.47;2.50;;;;;;;18.34;90.00;98466.56;4911853;28;20263;-52
2022/09/07 02:47:31;;;;;;;4.33;2.40;;;;;;;18.43;88.58;98464.53;4928767;28;20623;-54
2022/09/07 02:50:20;;;;;;;5.40;2.33;;;;;;;18.53;86.97;98457.00;4911515;28;20232;-54
2022/09/07 02:52:59;;;;;;;8.33;2.67;;;;;;;18.66;87.47;98465.88;4902636;28;20299;-52
2022/09/07 02:55:41;;;;;;;7.57;2.90;;;;;;;18.70;85.24;98469.75;4911722;29;20258;-55
2022/09/07 02:58:19;;;;;;;7.87;2.90;;;;;;;18.81;84.52;98460.38;4893594;29;20230;-53
2022/09/07 03:04:06;;;;;;;7.33;2.30;;;;;;;18.89;84.29;98458.28;5716740;23;22386;-50
2022/09/07 03:06:40;;;;;;;4.47;2.60;;;;;;;18.93;83.52;98457.88;4923947;28;20732;-55
2022/09/07 03:09:11;;;;;;;5.00;2.00;;;;;;;18.94;83.85;98462.97;4922675;28;20243;-52
2022/09/07 03:11:38;;;;;;;4.80;2.60;;;;;;;18.98;84.39;98466.03;4932461;28;20286;-53
2022/09/07 03:14:15;;;;;;;10.80;2.40;;;;;;;18.94;84.51;98462.16;4923428;28;20232;-52
2022/09/07 03:16:43;;;;;;;6.70;1.93;;;;;;;18.97;84.17;98459.13;4922806;29;20235;-55
2022/09/07 03:19:11;;;;;;;3.17;1.93;;;;;;;18.92;84.03;98451.78;4905361;28;20228;-52
2022/09/07 03:21:37;;;;;;;7.13;2.27;;;;;;;18.91;82.97;98449.34;4926261;29;20238;-52
2022/09/07 03:24:10;;;;;;;7.73;2.10;;;;;;;18.88;83.83;98453.22;4923862;29;20240;-55
2022/09/07 03:26:42;;;;;;;4.40;2.20;;;;;;;18.82;82.67;98452.22;4922160;28;20232;-55
2022/09/07 03:29:09;;;;;;;6.47;2.00;;;;;;;18.76;83.71;98460.19;4913480;28;20898;-51
2022/09/07 03:31:37;;;;;;;5.10;1.90;;;;;;;18.60;83.87;98456.97;4923426;28;20292;-54
2022/09/07 03:34:04;;;;;;;4.30;2.10;;;;;;;18.46;84.29;98452.72;4928019;28;20238;-54
2022/09/07 03:36:33;;;;;;;4.80;2.10;;;;;;;18.35;84.66;98454.97;4925977;28;20295;-54
2022/09/07 03:39:00;;;;;;;4.97;2.07;;;;;;;18.30;85.94;98446.84;4925607;28;20683;-51
2022/09/07 03:41:28;;;;;;;5.03;2.30;;;;;;;18.17;86.04;98444.22;4924812;29;20235;-51
2022/09/07 03:43:54;;;;;;;7.17;2.27;;;;;;;18.07;86.27;98444.66;4928909;29;20243;-52
2022/09/07 03:46:21;;;;;;;4.30;2.20;;;;;;;17.98;86.90;98441.38;4925680;28;20239;-52
2022/09/07 03:48:49;;;;;;;5.70;2.40;;;;;;;17.90;87.46;98442.38;4914576;28;20774;-52
2022/09/07 03:51:18;;;;;;;6.57;2.10;;;;;;;17.84;88.44;98440.56;4929039;28;20240;-55
2022/09/07 03:53:47;;;;;;;6.70;2.33;;;;;;;17.75;88.13;98447.03;4925168;28;20278;-54
2022/09/07 03:56:18;;;;;;;5.83;2.40;;;;;;;17.74;88.71;98433.03;4928441;28;20231;-53
2022/09/07 03:58:53;;;;;;;6.03;2.17;;;;;;;17.66;89.76;98443.78;4913598;28;20286;-55
2022/09/07 04:01:21;;;;;;;5.70;2.13;;;;;;;17.61;89.28;98440.94;4926208;28;20237;-52
2022/09/07 04:03:51;;;;;;;7.40;2.60;;;;;;;17.60;89.74;98439.31;4906118;28;20313;-54
2022/09/07 04:06:19;;;;;;;6.93;2.77;;;;;;;17.56;89.77;98441.53;4911736;28;20234;-52
2022/09/07 04:08:47;;;;;;;6.23;2.40;;;;;;;17.54;89.73;98439.09;4924148;29;20329;-52
2022/09/07 04:11:17;;;;;;;6.07;2.10;;;;;;;17.45;90.15;98442.94;4926071;28;20781;-54
2022/09/07 04:13:44;;;;;;;8.70;2.43;;;;;;;17.39;89.85;98449.00;4923746;28;20250;-52
2022/09/07 04:16:14;;;;;;;5.97;2.30;;;;;;;17.32;90.80;98446.38;4925810;29;20241;-53
2022/09/07 04:18:41;;;;;;;5.17;2.27;;;;;;;17.25;91.05;98456.09;4924647;28;20234;-53
2022/09/07 04:21:08;;;;;;;10.77;2.07;;;;;;;17.24;90.58;98457.09;4926943;28;20230;-54
2022/09/07 04:23:37;;;;;;;4.20;2.03;;;;;;;17.21;91.23;98463.56;4891531;28;20247;-53
2022/09/07 04:26:06;;;;;;;6.30;2.20;;;;;;;17.20;91.95;98469.84;4912310;28;20237;-51
2022/09/07 04:28:41;;;;;;;4.77;1.70;;;;;;;17.18;91.81;98466.59;4911992;28;20234;-55
2022/09/07 04:31:08;;;;;;;4.93;2.10;;;;;;;17.15;91.98;98469.63;4921734;29;20899;-52
2022/09/07 04:33:35;;;;;;;3.73;1.53;;;;;;;17.12;91.80;98483.22;4926147;28;20234;-55
2022/09/07 04:36:03;;;;;;;3.77;1.90;;;;;;;17.07;92.53;98475.91;4929271;29;20227;-53
2022/09/07 04:38:30;;;;;;;3.53;1.83;;;;;;;17.05;92.34;98471.81;4925661;28;20237;-54
2022/09/07 04:41:09;;;;;;;7.50;2.53;;;;;;;17.04;92.40;98473.66;4927238;29;20259;-53
2022/09/07 04:43:40;;;;;;;6.70;2.13;;;;;;;17.15;92.25;98471.47;4885392;28;20241;-53
2022/09/07 04:46:10;;;;;;;5.87;2.03;;;;;;;17.15;92.58;98469.63;4928085;28;20321;-52
2022/09/07 04:48:37;;;;;;;4.40;1.70;;;;;;;17.15;92.49;98482.03;4924791;28;20243;-52
2022/09/07 04:51:15;;;;;;;3.07;2.17;;;;;;;17.11;93.10;98477.16;4896937;29;20258;-53
2022/09/07 04:53:42;;;;;;;10.43;2.80;;;;;;;17.05;93.34;98477.94;4923708;28;20325;-53
2022/09/07 04:56:10;;;;;;;3.93;2.20;;;;;;;17.08;92.96;98489.88;4929353;28;20227;-53
2022/09/07 04:58:37;;;;;;;10.10;2.53;;;;;;;17.14;93.76;98488.31;4926203;29;20240;-53
2022/09/07 05:01:06;;;;;;;4.73;2.30;;;;;;;17.16;93.84;98491.56;4928231;29;20247;-55
2022/09/07 05:03:35;;;;;;;10.73;2.60;;;;;;;17.21;93.78;98499.69;4921525;28;20225;-56
2022/09/07 05:08:52;;;;;;;7.80;2.60;;;;;;;17.17;94.93;98504.53;4914720;28;20314;-51
2022/09/07 05:11:22;;;;;;;7.20;2.70;;;;;;;17.18;94.55;98511.44;4929805;28;20374;-53
2022/09/07 05:13:49;;;;;;;7.37;2.60;;;;;;;17.28;94.85;98505.81;4925885;28;20618;-51
2022/09/07 05:16:21;;;;;;;8.37;2.07;;;;;;;17.34;94.46;98497.13;4928117;29;20245;-52
2022/09/07 05:18:50;;;;;;;6.70;2.53;;;;;;;17.37;94.55;98506.44;4927065;28;20241;-52
2022/09/07 05:21:20;;;;;;;7.40;2.30;;;;;;;17.38;94.39;98503.63;4933221;29;20234;-51
2022/09/07 05:23:49;;;;;;;9.60;2.57;;;;;;;17.40;94.74;98509.50;4923629;28;20749;-53
2022/09/07 05:26:18;;;;;;;8.73;2.97;;;;;;;17.41;94.46;98510.31;4929510;28;20227;-53
2022/09/07 05:28:46;;;;;;;7.37;2.67;;;;;;;17.46;94.29;98505.25;4925004;28;20238;-54
2022/09/07 05:31:15;;;;;;;4.43;2.40;;;;;;;17.49;95.08;98504.06;4928537;28;20231;-52
2022/09/07 05:33:45;;;;;;;8.87;2.60;;;;;;;17.53;94.41;98500.00;4925661;28;20247;-51
2022/09/07 05:36:12;;;;;;;7.80;3.07;;;;;;;17.54;94.53;98513.00;4925331;28;20233;-52
2022/09/07 05:38:41;;;;;;;6.00;2.37;;;;;;;17.66;94.34;98515.06;4924889;28;20239;-54
2022/09/07 05:41:17;;;;;;;8.07;2.43;;;;;;;17.76;93.79;98518.13;4926369;29;20988;-54
2022/09/07 05:43:48;;;;;;;4.83;2.57;;;;;;;17.82;93.21;98527.88;4914421;28;20239;-55
2022/09/07 05:46:15;;;;;;;6.90;2.63;;;;;;;17.91;93.28;98525.88;4925910;28;20234;-56
2022/09/07 05:48:43;;;;;;;11.60;2.87;;;;;;;17.97;93.20;98527.69;4924152;28;20890;-55
2022/09/07 05:51:10;;;;;;;6.87;2.53;;;;;;;18.04;92.43;98527.72;4929385;28;20239;-55
2022/09/07 05:53:39;;;;;;;4.47;2.13;;;;;;;18.11;92.54;98535.66;4923501;28;20792;-54
2022/09/07 05:56:09;;;;;;;8.90;3.00;;;;;;;18.18;91.81;98531.22;4928493;28;20237;-53
2022/09/07 05:58:37;;;;;;;7.13;4.90;;;;;;;18.28;91.90;98536.91;4926721;29;20244;-53
2022/09/07 06:01:07;;;;;;;6.47;2.93;;;;;;;18.41;92.08;98527.34;4927991;29;20771;-53
2022/09/07 06:03:35;;;;;;;6.27;3.10;;;;;;;18.47;91.18;98528.34;4922434;28;20722;-55
2022/09/07 06:06:04;;;;;;;6.23;2.40;;;;;;;18.43;90.75;98523.47;4923151;28;20291;-55
2022/09/07 06:08:35;;;;;;;12.03;2.73;;;;;;;18.45;90.85;98525.94;4925655;28;20284;-53
2022/09/07 06:11:10;;;;;;;8.13;2.77;;;;;;;18.43;90.88;98527.97;4912367;28;20239;-54
2022/09/07 06:13:44;;;;;;;7.20;2.67;;;;;;;18.49;91.51;98526.31;4831801;28;20225;-57
2022/09/07 06:16:14;;;;;;;6.20;2.27;;;;;;;18.65;91.13;98533.81;4917309;28;20242;-52
2022/09/07 06:18:47;;;;;;;6.03;2.87;;;;;;;18.86;90.38;98538.03;4918994;28;20224;-54
2022/09/07 06:21:18;;;;;;;7.37;2.50;;;;;;;19.02;88.26;98551.88;4888868;28;20245;-54
2022/09/07 06:23:46;;;;;;;6.60;2.23;;;;;;;19.18;87.45;98551.44;4925378;28;20254;-52
2022/09/07 06:26:16;;;;;;;7.60;2.20;;;;;;;19.34;86.69;98554.63;4894236;28;20261;-54
2022/09/07 06:28:44;;;;;;;10.40;2.30;;;;;;;19.43;86.45;98550.72;4931593;28;20241;-53
2022/09/07 06:31:16;;;;;;;7.37;2.60;;;;;;;19.53;84.15;98558.22;4929007;29;20740;-56
2022/09/07 06:33:44;;;;;;;8.97;2.63;;;;;;;19.74;82.12;98564.22;4883467;28;20393;-51
2022/09/07 06:36:13;;;;;;;6.33;2.40;;;;;;;19.79;80.97;98567.03;4926950;29;20323;-53
2022/09/07 06:38:40;;;;;;;8.70;2.90;;;;;;;19.83;80.63;98570.88;4913465;28;20300;-53
2022/09/07 06:41:15;;;;;;;6.43;2.73;;;;;;;19.81;80.08;98572.94;4927566;29;20229;-55
2022/09/07 06:43:42;;;;;;;8.03;2.70;;;;;;;19.95;79.51;98581.66;4917556;28;20250;-53
2022/09/07 06:46:09;;;;;;;9.43;3.23;;;;;;;19.70;80.46;98578.91;4928542;28;20766;-52
2022/09/07 06:48:37;;;;;;;7.43;3.20;;;;;;;19.91;80.21;98578.63;4927074;28;20229;-53
2022/09/07 06:51:06;;;;;;;6.57;2.87;;;;;;;19.91;79.81;98581.28;4927031;29;20708;-53
2022/09/07 06:53:35;;;;;;;9.77;2.87;;;;;;;19.88;80.71;98588.78;4923566;28;20237;-55
2022/09/07 06:56:08;;;;;;;10.10;2.97;;;;;;;20.06;79.26;98575.66;4912743;28;20261;-55
2022/09/07 06:58:35;;;;;;;9.80;2.93;;;;;;;20.11;78.94;98574.22;4925075;29;20535;-55
2022/09/07 07:01:06;;;;;;;12.23;3.23;;;;;;;19.93;79.63;98578.41;4924082;28;20240;-53
2022/09/07 07:03:33;;;;;;;8.70;3.13;;;;;;;20.26;77.97;98581.84;4920048;28;20257;-55
2022/09/07 07:06:10;;;;;;;4.83;2.33;;;;;;;20.27;78.70;98572.88;4900169;29;20229;-54
2022/09/07 07:08:53;;;;;;;5.90;2.50;;;;;;;20.60;76.73;98577.91;4911816;28;20596;-56
2022/09/07 07:11:20;;;;;;;8.90;2.90;;;;;;;20.78;77.86;98576.34;4889428;28;20231;-54
2022/09/07 07:13:53;;;;;;;6.30;2.73;;;;;;;20.95;77.71;98589.88;4895276;28;20245;-54
2022/09/07 07:16:22;;;;;;;10.90;3.00;;;;;;;21.12;76.66;98579.47;4891306;28;20263;-55
2022/09/07 07:18:55;;;;;;;4.73;2.73;;;;;;;21.14;76.04;98579.28;4910610;28;20235;-54
2022/09/07 07:21:27;;;;;;;7.87;3.20;;;;;;;21.12;75.54;98584.00;4924355;28;20333;-55
2022/09/07 07:23:54;;;;;;;6.63;2.90;;;;;;;21.23;76.06;98577.91;4923667;28;20256;-54
2022/09/07 07:26:25;;;;;;;6.57;2.93;;;;;;;21.30;73.57;98588.47;4924082;28;20312;-53
2022/09/07 07:28:54;;;;;;;8.20;2.97;;;;;;;21.45;73.45;98585.44;4922893;29;20232;-55
2022/09/07 07:31:23;;;;;;;9.03;2.87;;;;;;;21.73;71.89;98584.09;4924215;28;20239;-52
2022/09/07 07:33:51;;;;;;;13.00;2.97;;;;;;;21.93;71.42;98591.78;4921721;28;20246;-54
2022/09/07 07:36:20;;;;;;;9.40;3.07;;;;;;;22.14;70.76;98601.13;4913581;28;20305;-52
2022/09/07 07:38:50;;;;;;;9.10;2.60;;;;;;;22.31;69.85;98597.78;4919142;29;20225;-52
2022/09/07 07:41:18;;;;;;;9.60;2.40;;;;;;;22.32;69.21;98586.94;4926480;29;20227;-53
2022/09/07 07:43:46;;;;;;;4.67;2.50;;;;;;;22.41;68.92;98596.19;4921183;29;20240;-53
2022/09/07 07:46:13;;;;;;;7.40;2.83;;;;;;;22.46;69.32;98595.53;4926164;29;20232;-53
2022/09/07 07:48:40;;;;;;;7.33;2.90;;;;;;;22.65;67.79;98595.44;4912273;28;20234;-53
2022/09/07 07:51:11;;;;;;;8.50;2.70;;;;;;;22.67;68.11;98599.50;4941946;28;20253;-53
2022/09/07 07:53:40;;;;;;;13.97;2.70;;;;;;;22.74;67.36;98610.00;4912972;28;20802;-55
2022/09/07 07:56:10;;;;;;;10.33;2.97;;;;;;;22.78;67.04;98605.06;4916785;29;20736;-55
2022/09/07 08:01:23;;;;;;;7.43;2.97;;;;;;;22.51;68.14;98606.28;4886995;29;20233;-54
2022/09/07 08:03:53;;;;;;;9.33;2.57;;;;;;;22.53;68.14;98611.38;4890075;28;20384;-53
2022/09/07 08:06:21;;;;;;;10.20;2.77;;;;;;;22.38;68.90;98617.09;4931981;28;21166;-56
2022/09/07 08:08:48;;;;;;;6.97;2.37;;;;;;;22.29;69.13;98615.81;4929847;28;20230;-56
2022/09/07 08:11:18;;;;;;;9.77;2.20;;;;;;;22.22;69.64;98619.41;4927408;28;20246;-56
2022/09/07 08:14:01;;;;;;;9.67;2.73;;;;;;;22.29;69.89;98623.78;4925485;28;20234;-55
2022/09/07 08:16:28;;;;;;;9.07;2.73;;;;;;;22.26;70.25;98620.53;4926955;28;20318;-53
2022/09/07 08:18:57;;;;;;;7.53;2.43;;;;;;;22.31;70.00;98613.72;4930289;28;20243;-54
2022/09/07 08:21:25;;;;;;;8.70;2.50;;;;;;;22.34;69.70;98623.91;4926547;28;20234;-53
2022/09/07 08:23:51;;;;;;;9.07;2.60;;;;;;;22.37;69.79;98618.97;4911680;29;20252;-54
2022/09/07 08:26:19;;;;;;;9.87;2.57;;;;;;;22.37;69.72;98608.31;4929226;28;20237;-53
2022/09/07 08:28:48;;;;;;;6.80;2.27;;;;;;;22.36;69.79;98613.84;4928734;28;20275;-55
2022/09/07 08:31:18;;;;;;;14.20;2.83;;;;;;;22.33;69.83;98614.31;4913465;29;20567;-55
2022/09/07 08:33:48;;;;;;;11.20;2.60;;;;;;;22.43;70.01;98614.56;4881679;28;20229;-55
2022/09/07 08:36:17;;;;;;;9.47;2.80;;;;;;;22.46;69.17;98622.13;4926173;28;20215;-58
2022/09/07 08:38:44;;;;;;;9.53;2.40;;;;;;;22.39;68.92;98624.88;4884645;29;20296;-52
2022/09/07 08:41:45;;;;;;;11.10;3.40;;;;;;;22.36;70.33;98625.31;4876869;28;20732;-54
2022/09/07 08:44:42;;;;;;;8.13;2.70;;;;;;;22.56;69.62;98633.00;4907664;28;20267;-52
2022/09/07 08:47:19;;;;;;;6.97;2.60;;;;;;;22.63;69.40;98634.75;4928948;28;20233;-53
2022/09/07 08:49:51;;;;;;;7.77;2.90;;;;;;;22.65;69.48;98630.00;4926596;28;20252;-56
2022/09/07 08:52:22;;;;;;;6.33;2.70;;;;;;;22.70;69.60;98628.28;4928198;29;20241;-52
2022/09/07 08:54:58;;;;;;;12.90;2.80;;;;;;;22.79;68.68;98634.06;4925195;28;20254;-54
2022/09/07 08:57:31;;;;;;;7.47;2.80;;;;;;;22.69;68.22;98636.50;4928837;28;20241;-55
2022/09/07 09:00:06;;;;;;;13.30;3.10;;;;;;;22.69;69.10;98629.34;4927959;28;20223;-54
2022/09/07 09:02:33;;;;;;;10.73;2.70;;;;;;;22.84;69.01;98636.03;4923013;29;20262;-59
2022/09/07 09:05:26;;;;;;;8.80;2.63;;;;;;;22.96;68.78;98638.72;4924471;28;20273;-56
2022/09/07 09:08:09;;;;;;;12.57;2.80;;;;;;;23.04;67.31;98633.03;4919368;28;20240;-52
2022/09/07 09:10:46;;;;;;;8.90;2.70;;;;;;;23.09;66.88;98616.34;4928206;28;20267;-53
2022/09/07 09:13:18;;;;;;;8.77;2.40;;;;;;;23.11;67.40;98615.09;4928789;29;20233;-53
2022/09/07 09:15:52;;;;;;;11.90;3.37;;;;;;;23.22;65.78;98610.78;4927225;28;20306;-54
2022/09/07 09:18:32;;;;;;;6.17;2.60;;;;;;;23.25;65.62;98609.56;4917007;29;20940;-53
2022/09/07 09:21:00;;;;;;;10.77;2.33;;;;;;;23.17;65.45;98609.88;4925139;28;20234;-55
2022/09/07 09:23:31;;;;;;;6.90;2.60;;;;;;;23.06;65.76;98609.66;4928735;28;20811;-55
2022/09/07 09:26:01;;;;;;;7.20;2.53;;;;;;;23.17;66.33;98599.22;4925992;28;20321;-52
2022/09/07 09:28:30;;;;;;;9.53;2.67;;;;;;;23.34;65.27;98596.66;4932741;28;20812;-53
2022/09/07 09:31:20;;;;;;;7.13;2.43;;;;;;;23.63;64.28;98600.16;4926980;28;20226;-54
2022/09/07 09:34:08;;;;;;;10.17;2.90;;;;;;;23.62;64.38;98601.22;4926041;29;20650;-52
2022/09/07 09:36:40;;;;;;;7.97;2.50;;;;;;;23.82;64.30;98586.66;4925362;28;20239;-53
2022/09/07 09:39:25;;;;;;;7.80;2.73;;;;;;;23.79;63.56;98597.78;4927607;29;20260;-55
2022/09/07 09:41:53;;;;;;;11.83;2.73;;;;;;;23.85;62.72;98588.84;4926353;28;20237;-53
2022/09/07 09:44:22;;;;;;;9.90;2.73;;;;;;;23.85;63.48;98591.50;4927148;28;20354;-56
2022/09/07 09:46:53;;;;;;;10.98;2.92;;;;;;;23.62;64.37;98598.56;4924229;28;20458;-55
2022/09/07 09:49:25;;;;;;;8.93;2.47;;;;;;;23.63;64.31;98588.72;4927170;29;20228;-55
2022/09/07 09:51:55;;;;;;;9.03;2.53;;;;;;;23.79;63.93;98593.28;4928403;29;20697;-55
2022/09/07 09:54:26;;;;;;;13.17;2.80;;;;;;;23.85;63.15;98591.50;4927061;29;21031;-52
2022/09/07 09:56:52;;;;;;;11.27;2.43;;;;;;;23.97;63.05;98589.59;4925599;28;20261;-55
2022/09/07 09:59:24;;;;;;;9.80;2.37;;;;;;;24.07;62.31;98575.66;4925846;28;20229;-54
2022/09/07 10:01:51;;;;;;;6.33;2.30;;;;;;;24.25;62.35;98579.16;4921072;29;20241;-55
2022/09/07 10:04:26;;;;;;;8.13;2.93;;;;;;;24.16;61.77;98587.56;4925712;28;20307;-56
2022/09/07 10:06:56;;;;;;;6.93;2.70;;;;;;;24.26;61.53;98573.59;4927311;28;20223;-52
2022/09/07 10:09:48;;;;;;;8.17;2.67;;;;;;;24.57;60.73;98570.59;4923150;28;20235;-54
2022/09/07 10:12:25;;;;;;;8.20;2.47;;;;;;;24.98;59.54;98578.41;4928045;29;20229;-53
2022/09/07 10:14:55;;;;;;;4.70;2.40;;;;;;;24.92;58.51;98580.16;4925984;29;20240;-53
2022/09/07 10:17:28;;;;;;;9.47;2.47;;;;;;;24.98;58.28;98581.84;4927437;28;20257;-56
2022/09/07 10:19:59;;;;;;;6.23;2.40;;;;;;;25.26;56.42;98581.97;4925006;29;20237;-54
2022/09/07 10:22:34;;;;;;;10.87;2.33;;;;;;;25.22;56.74;98588.84;4925932;29;20225;-54
2022/09/07 10:25:03;;;;;;;9.77;2.50;;;;;;;25.33;56.58;98586.03;4919753;28;20244;-54
2022/09/07 10:27:33;;;;;;;7.67;2.37;;;;;;;25.03;56.68;98581.94;4925181;28;20230;-54
2022/09/07 10:30:03;;;;;;;7.13;2.37;;;;;;;25.29;55.42;98582.25;4923347;28;20595;-54
2022/09/07 10:32:44;;;;;;;7.70;2.30;;;;;;;25.24;55.28;98570.72;4924168;28;20230;-53
2022/09/07 10:35:17;;;;;;;7.40;2.23;;;;;;;25.35;53.86;98569.78;4926122;29;20237;-55
2022/09/07 10:37:53;;;;;;;8.60;2.50;;;;;;;25.13;55.89;98575.09;4926785;28;20270;-54
2022/09/07 10:40:30;;;;;;;7.17;2.10;;;;;;;25.13;56.08;98570.59;4927589;28;20762;-54
2022/09/07 10:43:06;;;;;;;9.23;2.17;;;;;;;25.19;56.31;98564.25;4926360;28;20238;-53
2022/09/07 10:45:42;;;;;;;5.87;2.33;;;;;;;25.28;55.98;98564.59;4924959;28;20243;-51
2022/09/07 10:48:20;;;;;;;5.90;2.10;;;;;;;25.18;55.81;98561.81;4924796;28;20241;-52
2022/09/07 10:50:50;;;;;;;6.83;1.90;;;;;;;25.09;55.00;98547.28;4924254;28;20537;-54
2022/09/07 10:53:36;;;;;;;3.60;1.90;;;;;;;25.18;54.37;98546.63;4925191;28;21588;-52
2022/09/07 10:56:09;;;;;;;6.13;2.00;;;;;;;25.31;54.29;98539.28;4924617;29;20926;-53
2022/09/07 10:58:57;;;;;;;7.47;2.00;;;;;;;25.47;54.88;98533.06;4921363;28;20339;-54
2022/09/07 11:01:36;;;;;;;7.20;2.30;;;;;;;25.53;51.72;98531.25;4929234;28;20258;-54
2022/09/07 11:04:20;;;;;;;5.90;1.93;;;;;;;25.61;52.22;98517.44;4923370;29;20233;-54
2022/09/07 11:06:50;;;;;;;8.83;2.00;;;;;;;25.54;52.49;98516.00;4923620;28;20580;-55
2022/09/07 11:09:47;;;;;;;9.10;2.20;;;;;;;25.69;51.66;98523.41;4924524;28;20277;-55
2022/09/07 11:12:16;;;;;;;4.13;1.67;;;;;;;25.73;52.26;98519.94;4925089;29;20239;-54
2022/09/07 11:14:50;;;;;;;8.37;1.80;;;;;;;25.85;51.07;98513.63;4924091;28;20246;-52
2022/09/07 11:17:23;;;;;;;4.50;1.80;;;;;;;25.94;51.52;98507.59;4924750;28;20235;-53
2022/09/07 11:19:54;;;;;;;8.27;2.60;;;;;;;26.13;49.78;98514.41;4922228;28;20246;-52
2022/09/07 11:22:29;;;;;;;6.60;2.00;;;;;;;26.23;48.98;98506.47;4925714;28;20304;-52
2022/09/07 11:25:04;;;;;;;4.50;1.87;;;;;;;26.36;48.46;98507.91;4924141;28;20821;-53
2022/09/07 11:27:37;;;;;;;9.07;2.23;;;;;;;26.49;48.52;98501.31;4921048;28;20239;-52
2022/09/07 11:30:13;;;;;;;7.07;2.20;;;;;;;26.51;48.12;98504.50;4923163;28;20225;-53
2022/09/07 11:32:50;;;;;;;5.33;2.10;;;;;;;26.67;48.39;98502.72;4918914;28;20338;-53
2022/09/07 11:35:29;;;;;;;4.93;1.70;;;;;;;26.65;48.13;98500.31;4924962;29;20873;-55
2022/09/07 11:38:02;;;;;;;6.93;2.50;;;;;;;26.62;49.38;98490.09;4915956;29;20244;-52
2022/09/07 11:40:33;;;;;;;8.37;2.00;;;;;;;26.79;48.56;98505.19;4922979;29;20231;-53
2022/09/07 11:43:05;;;;;;;7.70;1.80;;;;;;;26.90;47.17;98490.81;4921568;29;20236;-55
2022/09/07 11:45:39;;;;;;;7.30;2.13;;;;;;;27.19;46.02;98489.56;4919420;28;20241;-54
2022/09/07 11:48:17;;;;;;;4.37;1.90;;;;;;;27.17;45.99;98492.50;4923016;29;20228;-54
2022/09/07 11:50:49;;;;;;;7.70;2.00;;;;;;;27.24;45.25;98495.75;4923230;28;20224;-52
2022/09/07 11:53:20;;;;;;;4.93;1.67;;;;;;;27.09;44.95;98501.84;4925189;28;20243;-52
2022/09/07 11:55:49;;;;;;;5.20;1.47;;;;;;;27.27;43.68;98507.81;4932848;28;20227;-53
2022/09/07 11:59:07;;;;;;;6.10;1.80;;;;;;;26.93;44.11;98500.22;4922259;28;20240;-54
2022/09/07 12:01:45;;;;;;;4.60;1.60;;;;;;;26.96;44.94;98503.16;4919247;28;20234;-55
2022/09/07 12:04:28;;;;;;;7.73;1.80;;;;;;;27.02;45.00;98497.81;4925531;29;20235;-54